Time;durP1;ratioP1;P1;durP2;ratioP2;P2;SDS_P1;SDS_P2;PMS_P1;PMS_P2;Temp;Humidity;BMP_temperature;BMP_pressure;BME280_temperature;BME280_humidity;BME280_pressure;Samples;Min_cycle;Max_cycle;Signal;HPM_P1;HPM_P2
2021/03/24 00:00:39;;;;;;;115.03;46.40;;;;;;;;;;5070711;28;20028;-58
2021/03/24 00:03:05;;;;;;;107.00;43.22;;;;;;;;;;5070887;28;20025;-58
2021/03/24 00:05:35;;;;;;;113.50;46.75;;;;;;;;;;5052327;28;20461;-59
2021/03/24 00:08:00;;;;;;;116.07;47.17;;;;;;;;;;5071124;28;20083;-57
2021/03/24 00:10:26;;;;;;;119.33;47.53;;;;;;;;;;5070447;28;20492;-58
2021/03/24 00:12:52;;;;;;;112.00;47.67;;;;;;;;;;5071432;28;20036;-59
2021/03/24 00:15:18;;;;;;;108.80;46.75;;;;;;;;;;5070544;28;20040;-59
2021/03/24 00:17:44;;;;;;;119.93;49.28;;;;;;;;;;5071392;28;20472;-59
2021/03/24 00:20:10;;;;;;;126.03;48.50;;;;;;;;;;5053213;28;20121;-59
2021/03/24 00:22:36;;;;;;;;;;;;;;;;;;5070849;28;20040;-59
2021/03/24 00:25:01;;;;;;;121.63;46.23;;;;;;;;;;5071080;28;20371;-60
2021/03/24 00:27:27;;;;;;;122.18;47.35;;;;;;;;;;5070590;28;20028;-60
2021/03/24 00:29:52;;;;;;;120.33;45.50;;;;;;;;;;5071004;28;20040;-59
2021/03/24 00:32:17;;;;;;;136.37;49.63;;;;;;;;;;5052344;28;20120;-58
2021/03/24 00:34:43;;;;;;;131.30;50.60;;;;;;;;;;5036653;28;20041;-57
2021/03/24 00:37:09;;;;;;;127.28;47.05;;;;;;;;;;5053098;28;20461;-58
2021/03/24 00:39:34;;;;;;;138.33;53.07;;;;;;;;;;5052196;28;20067;-58
2021/03/24 00:41:59;;;;;;;139.20;50.70;;;;;;;;;;5070634;28;20036;-58
2021/03/24 00:44:25;;;;;;;128.23;49.73;;;;;;;;;;5052305;28;20041;-59
2021/03/24 00:46:50;;;;;;;141.13;51.57;;;;;;;;;;5070681;28;20033;-58
2021/03/24 00:49:16;;;;;;;138.40;53.07;;;;;;;;;;5072455;28;20165;-59
2021/03/24 00:51:41;;;;;;;134.88;49.50;;;;;;;;;;5073716;28;20029;-59
2021/03/24 00:54:07;;;;;;;126.20;49.33;;;;;;;;;;5056337;28;20483;-59
2021/03/24 00:56:32;;;;;;;140.90;51.87;;;;;;;;;;5073526;28;20483;-58
2021/03/24 00:58:57;;;;;;;142.77;51.47;;;;;;;;;;5056504;28;20465;-58
2021/03/24 01:01:22;;;;;;;140.50;53.53;;;;;;;;;;5073253;28;20139;-58
2021/03/24 01:03:48;;;;;;;136.63;51.10;;;;;;;;;;5073724;28;20060;-58
2021/03/24 01:06:13;;;;;;;147.97;52.97;;;;;;;;;;5074173;28;20094;-59
2021/03/24 01:08:38;;;;;;;157.27;54.50;;;;;;;;;;5073198;28;20045;-58
2021/03/24 01:11:04;;;;;;;140.77;53.90;;;;;;;;;;5056152;28;20025;-59
2021/03/24 01:13:29;;;;;;;155.83;54.07;;;;;;;;;;5091160;28;20024;-58
2021/03/24 01:15:55;;;;;;;147.47;52.37;;;;;;;;;;5094094;28;20363;-58
2021/03/24 01:18:21;;;;;;;138.27;49.33;;;;;;;;;;5075547;28;20048;-59
2021/03/24 01:20:47;;;;;;;143.23;52.35;;;;;;;;;;5075902;28;20261;-59
2021/03/24 01:23:13;;;;;;;155.45;55.78;;;;;;;;;;5094132;28;20028;-59
2021/03/24 01:25:38;;;;;;;146.55;52.17;;;;;;;;;;5093047;28;20031;-58
2021/03/24 01:28:05;;;;;;;148.43;53.73;;;;;;;;;;5075569;28;20084;-58
2021/03/24 01:30:32;;;;;;;145.90;53.05;;;;;;;;;;5093288;28;20256;-58
2021/03/24 01:32:57;;;;;;;158.40;53.78;;;;;;;;;;5093910;28;20024;-59
2021/03/24 01:35:23;;;;;;;144.63;53.67;;;;;;;;;;5093647;28;20040;-58
2021/03/24 01:37:49;;;;;;;139.77;50.38;;;;;;;;;;5093773;28;20129;-58
2021/03/24 01:40:25;;;;;;;144.75;51.83;;;;;;;;;;5093846;28;20024;-58
2021/03/24 01:42:54;;;;;;;137.23;51.22;;;;;;;;;;5093502;28;20111;-59
2021/03/24 01:45:20;;;;;;;145.35;54.22;;;;;;;;;;5093554;28;20444;-59
2021/03/24 01:47:45;;;;;;;149.50;53.83;;;;;;;;;;5092749;28;20077;-58
2021/03/24 01:50:14;;;;;;;154.10;53.17;;;;;;;;;;5093653;28;20055;-59
2021/03/24 01:52:40;;;;;;;153.10;55.70;;;;;;;;;;5074801;28;20395;-59
2021/03/24 01:55:05;;;;;;;156.40;54.30;;;;;;;;;;5093541;28;20035;-58
2021/03/24 01:57:31;;;;;;;160.60;55.30;;;;;;;;;;5092800;28;20424;-60
2021/03/24 01:59:56;;;;;;;156.63;53.97;;;;;;;;;;5092096;28;20357;-58
2021/03/24 02:02:33;;;;;;;159.47;53.50;;;;;;;;;;5093291;28;20038;-58
2021/03/24 02:04:59;;;;;;;158.98;55.53;;;;;;;;;;5093483;28;20457;-58
2021/03/24 02:07:50;;;;;;;153.30;54.60;;;;;;;;;;5092976;28;20150;-59
2021/03/24 02:10:19;;;;;;;156.13;53.88;;;;;;;;;;5070804;28;20044;-58
2021/03/24 02:12:49;;;;;;;156.77;52.28;;;;;;;;;;5092310;28;20044;-58
2021/03/24 02:15:28;;;;;;;156.07;53.58;;;;;;;;;;5074294;28;20105;-58
2021/03/24 02:17:54;;;;;;;156.98;52.72;;;;;;;;;;5092655;28;20036;-59
2021/03/24 02:20:24;;;;;;;160.45;55.38;;;;;;;;;;5092950;28;20043;-59
2021/03/24 02:22:52;;;;;;;156.73;57.72;;;;;;;;;;5092293;28;20032;-60
2021/03/24 02:25:24;;;;;;;150.80;54.08;;;;;;;;;;5074621;28;20028;-58
2021/03/24 02:27:55;;;;;;;157.68;53.10;;;;;;;;;;5073936;28;20055;-59
2021/03/24 02:30:23;;;;;;;147.02;54.40;;;;;;;;;;5092749;28;20417;-59
2021/03/24 02:32:51;;;;;;;141.70;52.17;;;;;;;;;;5091630;28;20199;-59
2021/03/24 02:35:24;;;;;;;141.95;51.80;;;;;;;;;;5092052;28;20476;-59
2021/03/24 02:37:51;;;;;;;149.85;52.70;;;;;;;;;;5092010;28;20491;-59
2021/03/24 02:40:18;;;;;;;145.77;53.72;;;;;;;;;;5092510;28;20115;-59
2021/03/24 02:42:44;;;;;;;153.88;54.20;;;;;;;;;;5091868;28;20048;-59
2021/03/24 02:45:13;;;;;;;157.57;53.50;;;;;;;;;;5092569;28;20426;-58
2021/03/24 02:47:40;;;;;;;144.60;52.63;;;;;;;;;;5091687;28;20315;-58
2021/03/24 02:50:07;;;;;;;154.60;54.78;;;;;;;;;;5074564;28;20037;-59
2021/03/24 02:52:32;;;;;;;143.30;52.70;;;;;;;;;;5073595;28;20108;-58
2021/03/24 02:54:58;;;;;;;147.55;52.97;;;;;;;;;;5092261;28;20497;-59
2021/03/24 02:57:24;;;;;;;150.45;52.80;;;;;;;;;;5092007;28;20031;-59
2021/03/24 02:59:52;;;;;;;151.83;54.43;;;;;;;;;;5091400;28;20068;-58
2021/03/24 03:02:20;;;;;;;144.45;52.42;;;;;;;;;;5092156;28;20035;-59
2021/03/24 03:04:47;;;;;;;151.48;53.80;;;;;;;;;;5091049;28;20464;-59
2021/03/24 03:07:15;;;;;;;146.45;51.40;;;;;;;;;;5091703;28;20460;-59
2021/03/24 03:09:47;;;;;;;150.93;55.67;;;;;;;;;;5073047;28;20039;-58
2021/03/24 03:12:31;;;;;;;136.43;52.47;;;;;;;;;;5073334;28;20443;-58
2021/03/24 03:14:58;;;;;;;142.88;52.83;;;;;;;;;;5091112;28;20337;-58
2021/03/24 03:17:23;;;;;;;;;;;;;;;;;;5091995;28;20028;-58
2021/03/24 03:20:11;;;;;;;145.53;52.00;;;;;;;;;;5091188;28;19961;-58
2021/03/24 03:22:41;;;;;;;141.93;51.85;;;;;;;;;;5077218;28;20036;-58
2021/03/24 03:25:06;;;;;;;144.50;54.63;;;;;;;;;;5091685;28;20036;-58
2021/03/24 03:27:31;;;;;;;144.40;53.37;;;;;;;;;;5091819;28;20024;-59
2021/03/24 03:33:24;;;;;;;140.77;51.58;;;;;;;;;;5092938;22;20072;-58
2021/03/24 03:35:51;;;;;;;149.40;54.55;;;;;;;;;;5007536;28;20049;-58
2021/03/24 03:38:17;;;;;;;128.75;50.75;;;;;;;;;;4996302;28;20058;-58
2021/03/24 03:40:44;;;;;;;126.93;50.03;;;;;;;;;;4992241;28;20022;-60
2021/03/24 03:43:11;;;;;;;147.35;52.45;;;;;;;;;;4990095;28;20042;-58
2021/03/24 03:45:36;;;;;;;;;;;;;;;;;;4992376;28;20027;-59
2021/03/24 03:48:02;;;;;;;135.80;50.77;;;;;;;;;;4997960;28;19916;-59
2021/03/24 03:50:27;;;;;;;133.32;51.20;;;;;;;;;;5011092;28;20398;-58
2021/03/24 03:52:59;;;;;;;144.57;55.90;;;;;;;;;;5011752;28;20080;-59
2021/03/24 03:55:24;;;;;;;132.48;51.22;;;;;;;;;;5011082;28;20029;-59
2021/03/24 03:57:52;;;;;;;145.20;52.53;;;;;;;;;;5009224;28;20036;-59
2021/03/24 04:00:30;;;;;;;130.02;51.50;;;;;;;;;;4991511;28;20050;-59
2021/03/24 04:03:02;;;;;;;139.73;53.53;;;;;;;;;;4991634;28;20026;-59
2021/03/24 04:05:31;;;;;;;137.18;50.50;;;;;;;;;;5006250;28;20034;-59
2021/03/24 04:08:01;;;;;;;141.80;51.05;;;;;;;;;;4991952;28;20037;-58
2021/03/24 04:10:29;;;;;;;144.32;51.70;;;;;;;;;;4990015;28;20113;-59
2021/03/24 04:12:55;;;;;;;133.02;51.88;;;;;;;;;;4991950;28;20027;-60
2021/03/24 04:15:21;;;;;;;126.78;49.92;;;;;;;;;;4991435;28;20390;-59
2021/03/24 04:17:51;;;;;;;137.48;52.40;;;;;;;;;;5007029;28;20042;-59
2021/03/24 04:20:21;;;;;;;137.20;52.95;;;;;;;;;;4991172;28;20075;-58
2021/03/24 04:22:48;;;;;;;135.85;49.70;;;;;;;;;;4990713;28;20039;-59
2021/03/24 04:25:17;;;;;;;129.35;51.78;;;;;;;;;;5011131;28;20029;-59
2021/03/24 04:27:44;;;;;;;130.63;50.78;;;;;;;;;;5015376;28;20076;-59
2021/03/24 04:30:09;;;;;;;;;;;;;;;;;;5015837;28;20113;-59
2021/03/24 04:32:34;;;;;;;143.30;52.23;;;;;;;;;;5014311;28;20428;-59
2021/03/24 04:35:00;;;;;;;139.70;48.92;;;;;;;;;;5015275;28;20124;-60
2021/03/24 04:37:31;;;;;;;144.07;50.47;;;;;;;;;;5013426;28;20450;-59
2021/03/24 04:39:57;;;;;;;135.55;51.63;;;;;;;;;;5015571;28;20026;-59
2021/03/24 04:42:25;;;;;;;133.70;51.50;;;;;;;;;;5014765;28;20038;-59
2021/03/24 04:44:54;;;;;;;135.32;53.33;;;;;;;;;;5015088;28;20037;-59
2021/03/24 04:47:23;;;;;;;137.40;54.88;;;;;;;;;;5014323;28;20088;-59
2021/03/24 04:50:03;;;;;;;134.15;52.85;;;;;;;;;;5014972;28;20034;-60
2021/03/24 04:52:32;;;;;;;139.65;51.53;;;;;;;;;;5014604;28;20036;-59
2021/03/24 04:54:59;;;;;;;130.80;50.25;;;;;;;;;;4997204;28;20112;-60
2021/03/24 04:57:25;;;;;;;154.15;53.13;;;;;;;;;;5014014;28;20026;-59
2021/03/24 04:59:54;;;;;;;142.38;54.22;;;;;;;;;;5015041;28;20034;-59
2021/03/24 05:02:25;;;;;;;143.30;54.47;;;;;;;;;;5014516;28;20092;-59
2021/03/24 05:04:52;;;;;;;141.65;54.42;;;;;;;;;;5014703;28;20036;-59
2021/03/24 05:07:26;;;;;;;140.18;52.92;;;;;;;;;;5014244;28;20022;-58
2021/03/24 05:09:51;;;;;;;148.75;53.50;;;;;;;;;;5014503;28;20030;-59
2021/03/24 05:12:19;;;;;;;138.27;57.03;;;;;;;;;;5012546;28;20088;-59
2021/03/24 05:14:53;;;;;;;137.05;56.22;;;;;;;;;;5014409;28;20064;-59
2021/03/24 05:17:25;;;;;;;139.25;53.03;;;;;;;;;;5014120;28;20052;-59
2021/03/24 05:19:56;;;;;;;132.75;53.38;;;;;;;;;;5014354;28;20057;-59
2021/03/24 05:22:26;;;;;;;148.65;53.20;;;;;;;;;;5016584;28;20029;-58
2021/03/24 05:25:03;;;;;;;153.02;51.28;;;;;;;;;;5023335;28;20076;-58
2021/03/24 05:27:34;;;;;;;147.20;53.30;;;;;;;;;;5018876;28;20026;-58
2021/03/24 05:30:03;;;;;;;152.05;55.33;;;;;;;;;;5015271;28;20107;-61
2021/03/24 05:32:32;;;;;;;146.13;54.38;;;;;;;;;;5013687;28;20107;-58
2021/03/24 05:34:59;;;;;;;154.27;58.72;;;;;;;;;;5013707;28;20072;-59
2021/03/24 05:37:27;;;;;;;150.98;53.15;;;;;;;;;;5013379;28;20064;-58
2021/03/24 05:39:53;;;;;;;142.27;54.15;;;;;;;;;;5014077;28;20327;-59
2021/03/24 05:42:24;;;;;;;130.53;51.30;;;;;;;;;;5012772;28;20032;-59
2021/03/24 05:44:55;;;;;;;141.23;52.75;;;;;;;;;;5014372;28;20521;-59
2021/03/24 05:47:24;;;;;;;138.13;52.13;;;;;;;;;;5013230;28;20041;-59
2021/03/24 05:49:55;;;;;;;147.93;53.63;;;;;;;;;;5012437;28;20442;-59
2021/03/24 05:52:29;;;;;;;142.52;51.88;;;;;;;;;;5013581;28;20096;-59
2021/03/24 05:55:13;;;;;;;126.82;51.58;;;;;;;;;;5013669;28;20056;-59
2021/03/24 05:58:08;;;;;;;132.38;53.15;;;;;;;;;;5012962;28;20397;-59
2021/03/24 06:00:41;;;;;;;134.07;49.58;;;;;;;;;;4999732;28;20077;-59
2021/03/24 06:03:06;;;;;;;131.50;47.58;;;;;;;;;;5013572;28;20113;-59
2021/03/24 06:05:36;;;;;;;128.57;50.37;;;;;;;;;;5012798;28;20139;-58
2021/03/24 06:08:11;;;;;;;143.18;53.42;;;;;;;;;;5013790;28;20026;-59
2021/03/24 06:10:55;;;;;;;137.02;52.42;;;;;;;;;;5011692;28;20061;-59
2021/03/24 06:13:39;;;;;;;121.22;47.78;;;;;;;;;;5013462;28;20065;-59
2021/03/24 06:16:04;;;;;;;133.98;48.28;;;;;;;;;;5013383;28;20080;-58
2021/03/24 06:18:37;;;;;;;130.60;53.07;;;;;;;;;;5012538;28;20076;-58
2021/03/24 06:21:11;;;;;;;133.70;47.70;;;;;;;;;;5013335;28;20037;-59
2021/03/24 06:23:42;;;;;;;120.88;49.33;;;;;;;;;;5011156;28;20057;-59
2021/03/24 06:26:23;;;;;;;136.98;51.47;;;;;;;;;;5013359;28;20034;-59
2021/03/24 06:28:53;;;;;;;125.53;49.65;;;;;;;;;;5012434;28;20030;-59
2021/03/24 06:31:34;;;;;;;121.40;49.35;;;;;;;;;;5018225;28;20033;-59
2021/03/24 06:34:18;;;;;;;123.93;48.35;;;;;;;;;;5020105;28;20390;-58
2021/03/24 06:37:02;;;;;;;132.73;50.15;;;;;;;;;;5019373;28;20038;-59
2021/03/24 06:39:43;;;;;;;124.30;51.25;;;;;;;;;;5012436;28;20374;-59
2021/03/24 06:42:14;;;;;;;122.95;47.55;;;;;;;;;;5017760;28;20058;-60
2021/03/24 06:44:59;;;;;;;135.50;50.58;;;;;;;;;;5011046;28;20041;-59
2021/03/24 06:47:24;;;;;;;130.30;51.53;;;;;;;;;;5022558;28;20074;-59
2021/03/24 06:49:52;;;;;;;129.70;48.83;;;;;;;;;;5020717;28;20022;-59
2021/03/24 06:52:20;;;;;;;127.07;49.47;;;;;;;;;;5021536;28;20017;-59
2021/03/24 06:54:46;;;;;;;125.78;51.40;;;;;;;;;;5022212;28;20120;-59
2021/03/24 06:57:20;;;;;;;123.90;49.53;;;;;;;;;;5021712;28;20530;-59
2021/03/24 07:00:12;;;;;;;129.90;53.90;;;;;;;;;;5018868;28;20076;-58
2021/03/24 07:02:37;;;;;;;130.48;48.40;;;;;;;;;;5018908;28;20490;-58
2021/03/24 07:05:18;;;;;;;136.37;52.40;;;;;;;;;;5020888;28;20030;-58
2021/03/24 07:08:02;;;;;;;122.15;48.40;;;;;;;;;;5018806;28;20034;-58
2021/03/24 07:10:37;;;;;;;127.07;49.47;;;;;;;;;;5016683;28;20447;-60
2021/03/24 07:13:05;;;;;;;116.97;49.28;;;;;;;;;;5020553;28;20030;-60
2021/03/24 07:15:31;;;;;;;125.60;49.60;;;;;;;;;;5021401;28;20052;-57
2021/03/24 07:17:56;;;;;;;117.47;46.73;;;;;;;;;;5020635;28;20470;-59
2021/03/24 07:20:24;;;;;;;132.87;50.83;;;;;;;;;;5020377;28;20145;-59
2021/03/24 07:22:56;;;;;;;123.95;46.03;;;;;;;;;;5017882;28;20649;-58
2021/03/24 07:25:42;;;;;;;123.22;49.67;;;;;;;;;;5019290;28;20079;-59
2021/03/24 07:28:26;;;;;;;128.13;51.50;;;;;;;;;;5012685;28;20030;-59
2021/03/24 07:30:54;;;;;;;124.75;48.55;;;;;;;;;;5011444;28;20044;-58
2021/03/24 07:33:19;;;;;;;117.93;47.40;;;;;;;;;;4995836;28;20050;-59
2021/03/24 07:36:02;;;;;;;121.63;47.27;;;;;;;;;;4991719;28;20049;-59
2021/03/24 07:38:46;;;;;;;115.70;47.42;;;;;;;;;;4992078;28;20033;-61
2021/03/24 07:41:31;;;;;;;115.35;48.60;;;;;;;;;;4992324;28;20058;-59
2021/03/24 07:43:56;;;;;;;117.32;50.13;;;;;;;;;;4991304;28;20038;-60
2021/03/24 07:46:40;;;;;;;108.97;46.90;;;;;;;;;;5008654;28;20033;-59
2021/03/24 07:49:14;;;;;;;121.95;49.55;;;;;;;;;;5013259;28;20064;-60
2021/03/24 07:51:58;;;;;;;132.55;50.88;;;;;;;;;;5014945;28;20225;-61
2021/03/24 07:54:30;;;;;;;120.50;50.25;;;;;;;;;;5011427;28;20057;-60
2021/03/24 07:57:10;;;;;;;123.32;51.58;;;;;;;;;;5011474;28;20072;-59
2021/03/24 07:59:35;;;;;;;117.95;49.33;;;;;;;;;;5022370;28;20083;-58
2021/03/24 08:02:01;;;;;;;118.53;49.27;;;;;;;;;;5001453;28;20034;-59
2021/03/24 08:04:38;;;;;;;107.77;44.23;;;;;;;;;;5014753;28;20038;-59
2021/03/24 08:07:21;;;;;;;116.78;47.80;;;;;;;;;;5015804;28;20022;-59
2021/03/24 08:09:47;;;;;;;118.15;48.33;;;;;;;;;;5014594;28;20092;-58
2021/03/24 08:12:31;;;;;;;112.53;48.10;;;;;;;;;;5015189;28;20030;-60
2021/03/24 08:15:08;;;;;;;111.00;45.90;;;;;;;;;;5014407;28;20067;-59
2021/03/24 08:17:52;;;;;;;109.47;46.90;;;;;;;;;;5015001;28;20061;-59
2021/03/24 08:20:17;;;;;;;109.05;45.25;;;;;;;;;;5014047;28;20076;-59
2021/03/24 08:22:50;;;;;;;106.57;47.07;;;;;;;;;;5014469;28;20034;-59
2021/03/24 08:25:38;;;;;;;106.63;44.35;;;;;;;;;;5015112;28;20048;-59
2021/03/24 08:28:03;;;;;;;102.40;46.20;;;;;;;;;;4995519;28;20494;-60
2021/03/24 08:30:32;;;;;;;106.07;47.00;;;;;;;;;;5014040;28;20064;-60
2021/03/24 08:33:06;;;;;;;106.20;45.70;;;;;;;;;;5013551;28;20061;-59
2021/03/24 08:35:31;;;;;;;109.25;44.38;;;;;;;;;;5014707;28;20038;-60
2021/03/24 08:38:21;;;;;;;100.13;43.37;;;;;;;;;;5012462;28;20037;-60
2021/03/24 08:40:46;;;;;;;107.80;46.10;;;;;;;;;;5013636;28;20025;-60
2021/03/24 08:43:14;;;;;;;114.23;44.80;;;;;;;;;;5015106;28;20537;-59
2021/03/24 08:45:50;;;;;;;105.18;46.08;;;;;;;;;;5012597;28;20030;-59
2021/03/24 08:48:39;;;;;;;103.93;42.42;;;;;;;;;;5014376;28;20343;-59
2021/03/24 08:51:15;;;;;;;109.00;45.58;;;;;;;;;;5006709;28;20042;-58
2021/03/24 08:53:40;;;;;;;106.55;43.13;;;;;;;;;;5012567;28;20041;-59
2021/03/24 08:56:11;;;;;;;96.70;42.50;;;;;;;;;;5014346;28;20371;-59
2021/03/24 08:58:38;;;;;;;106.97;42.00;;;;;;;;;;5014245;28;20037;-58
2021/03/24 09:01:33;;;;;;;99.10;42.50;;;;;;;;;;5013721;28;20037;-58
2021/03/24 09:04:07;;;;;;;94.23;44.63;;;;;;;;;;5014205;28;20370;-60
2021/03/24 09:06:38;;;;;;;86.23;39.97;;;;;;;;;;5014610;28;20359;-59
2021/03/24 09:09:23;;;;;;;97.63;38.63;;;;;;;;;;5013657;28;20290;-59
2021/03/24 09:12:03;;;;;;;92.27;39.50;;;;;;;;;;5013712;28;20350;-59
2021/03/24 09:14:47;;;;;;;90.00;39.43;;;;;;;;;;5014250;28;20267;-59
2021/03/24 09:17:19;;;;;;;98.67;38.93;;;;;;;;;;5012599;28;20275;-59
2021/03/24 09:20:07;;;;;;;84.93;39.97;;;;;;;;;;5013660;28;20263;-59
2021/03/24 09:22:51;;;;;;;89.27;39.10;;;;;;;;;;5012160;28;20363;-59
2021/03/24 09:25:35;;;;;;;89.33;37.57;;;;;;;;;;5014256;28;20272;-60
2021/03/24 09:28:20;;;;;;;83.23;38.60;;;;;;;;;;5013410;28;20310;-60
2021/03/24 09:30:45;;;;;;;81.43;39.30;;;;;;;;;;5012530;28;20259;-59
2021/03/24 09:33:43;;;;;;;81.77;39.10;;;;;;;;;;5013829;28;20279;-58
2021/03/24 09:36:09;;;;;;;;;;;;;;;;;;4972051;28;20050;-59
2021/03/24 09:38:36;;;;;;;88.80;38.13;;;;;;;;;;4999866;28;20255;-59
2021/03/24 09:41:17;;;;;;;82.37;36.37;;;;;;;;;;5021339;28;20026;-58
2021/03/24 09:43:43;;;;;;;73.97;35.80;;;;;;;;;;5021283;28;20283;-60
2021/03/24 09:46:29;;;;;;;78.13;36.63;;;;;;;;;;5023622;28;20022;-60
2021/03/24 09:48:58;;;;;;;80.70;35.40;;;;;;;;;;5019072;28;20041;-59
2021/03/24 09:51:25;;;;;;;73.07;35.00;;;;;;;;;;5013369;28;20120;-60
2021/03/24 09:53:50;;;;;;;81.80;38.77;;;;;;;;;;5012401;28;20041;-60
2021/03/24 09:56:19;;;;;;;78.07;33.60;;;;;;;;;;5013342;28;20030;-59
2021/03/24 09:59:07;;;;;;;76.07;37.00;;;;;;;;;;5012575;28;20295;-60
2021/03/24 10:01:35;;;;;;;76.33;34.83;;;;;;;;;;5011783;28;20034;-60
2021/03/24 10:04:12;;;;;;;72.17;35.07;;;;;;;;;;5012569;28;20022;-60
2021/03/24 10:06:44;;;;;;;72.83;34.57;;;;;;;;;;5013134;28;20034;-60
2021/03/24 10:09:17;;;;;;;73.23;36.37;;;;;;;;;;5013078;28;20389;-59
2021/03/24 10:11:56;;;;;;;73.27;34.87;;;;;;;;;;5012536;28;20030;-58
2021/03/24 10:14:43;;;;;;;62.00;31.73;;;;;;;;;;5011608;28;20044;-59
2021/03/24 10:17:12;;;;;;;67.72;32.90;;;;;;;;;;5028689;28;20081;-59
2021/03/24 10:19:41;;;;;;;71.33;33.40;;;;;;;;;;5012999;28;20057;-59
2021/03/24 10:22:09;;;;;;;63.53;31.93;;;;;;;;;;5011726;28;20021;-59
2021/03/24 10:24:42;;;;;;;68.53;32.90;;;;;;;;;;5012522;28;20034;-59
2021/03/24 10:27:09;;;;;;;64.23;31.90;;;;;;;;;;5012831;28;20034;-60
2021/03/24 10:29:47;;;;;;;63.30;30.50;;;;;;;;;;5012391;28;20092;-60
2021/03/24 10:32:28;;;;;;;59.03;28.87;;;;;;;;;;5012022;28;20049;-59
2021/03/24 10:34:59;;;;;;;62.33;29.30;;;;;;;;;;5026490;28;20477;-59
2021/03/24 10:37:46;;;;;;;59.23;28.50;;;;;;;;;;5012033;28;20105;-59
2021/03/24 10:40:27;;;;;;;62.43;30.43;;;;;;;;;;5012428;28;20482;-59
2021/03/24 10:42:59;;;;;;;63.07;28.10;;;;;;;;;;5011551;28;20029;-59
2021/03/24 10:45:32;;;;;;;51.63;26.53;;;;;;;;;;5010878;28;20033;-59
2021/03/24 10:48:11;;;;;;;65.47;28.17;;;;;;;;;;5011780;28;20030;-59
2021/03/24 10:50:40;;;;;;;61.10;27.53;;;;;;;;;;5012213;28;20045;-59
2021/03/24 10:53:05;;;;;;;57.43;28.40;;;;;;;;;;5011559;28;20463;-60
2021/03/24 10:55:33;;;;;;;60.08;28.67;;;;;;;;;;5024702;28;20037;-60
2021/03/24 10:58:17;;;;;;;54.60;27.50;;;;;;;;;;5031392;28;20363;-60
2021/03/24 11:00:48;;;;;;;54.23;26.73;;;;;;;;;;5028154;28;20041;-60
2021/03/24 11:03:21;;;;;;;57.90;27.00;;;;;;;;;;5010603;28;20030;-60
2021/03/24 11:05:50;;;;;;;55.23;26.47;;;;;;;;;;5010912;28;20482;-59
2021/03/24 11:08:34;;;;;;;57.30;26.93;;;;;;;;;;5012113;28;20026;-59
2021/03/24 11:11:05;;;;;;;48.03;22.93;;;;;;;;;;5011273;28;20034;-59
2021/03/24 11:13:34;;;;;;;49.07;24.67;;;;;;;;;;5011348;28;20030;-59
2021/03/24 11:16:03;;;;;;;50.30;24.30;;;;;;;;;;5009126;28;20161;-58
2021/03/24 11:18:34;;;;;;;48.20;23.97;;;;;;;;;;5010512;28;20018;-60
2021/03/24 11:21:01;;;;;;;52.27;24.93;;;;;;;;;;5011489;28;20115;-59
2021/03/24 11:23:42;;;;;;;45.27;24.37;;;;;;;;;;5011740;28;20057;-59
2021/03/24 11:26:16;;;;;;;49.93;24.17;;;;;;;;;;5011204;28;20074;-61
2021/03/24 11:28:43;;;;;;;50.20;22.90;;;;;;;;;;5011783;28;20038;-59
2021/03/24 11:31:13;;;;;;;44.20;21.90;;;;;;;;;;5010904;28;20026;-59
2021/03/24 11:33:51;;;;;;;41.93;21.03;;;;;;;;;;5011440;28;20087;-59
2021/03/24 11:36:18;;;;;;;44.90;23.00;;;;;;;;;;5011661;28;20050;-58
2021/03/24 11:38:54;;;;;;;41.07;21.07;;;;;;;;;;5005216;28;20054;-60
2021/03/24 11:41:25;;;;;;;41.83;20.85;;;;;;;;;;4992223;28;20034;-58
2021/03/24 11:43:56;;;;;;;33.03;18.30;;;;;;;;;;4991368;28;20034;-60
2021/03/24 11:46:25;;;;;;;35.33;17.87;;;;;;;;;;4991691;28;20034;-59
2021/03/24 11:48:59;;;;;;;39.13;17.60;;;;;;;;;;4991287;28;20018;-59
2021/03/24 11:51:40;;;;;;;36.30;18.97;;;;;;;;;;4991914;28;20027;-59
2021/03/24 11:54:18;;;;;;;39.33;18.13;;;;;;;;;;5005720;28;20038;-60
2021/03/24 11:56:46;;;;;;;36.23;18.47;;;;;;;;;;4996854;28;20130;-59
2021/03/24 11:59:23;;;;;;;35.63;17.50;;;;;;;;;;5030495;28;20037;-58
2021/03/24 12:01:54;;;;;;;36.33;17.70;;;;;;;;;;5030889;28;20034;-59
2021/03/24 12:04:38;;;;;;;39.80;17.93;;;;;;;;;;5025609;28;20367;-59
2021/03/24 12:07:03;;;;;;;35.97;19.37;;;;;;;;;;5017489;28;20462;-59
2021/03/24 12:09:28;;;;;;;;;;;;;;;;;;5012307;28;20153;-60
2021/03/24 12:12:26;;;;;;;39.07;19.37;;;;;;;;;;5015967;28;19948;-60
2021/03/24 12:15:21;;;;;;;39.63;20.52;;;;;;;;;;4986029;28;20438;-58
2021/03/24 12:17:46;;;;;;;38.67;20.33;;;;;;;;;;5001323;28;20041;-59
2021/03/24 12:20:12;;;;;;;39.55;19.50;;;;;;;;;;5018660;28;20462;-59
2021/03/24 12:22:37;;;;;;;41.15;20.60;;;;;;;;;;5020837;28;20025;-59
2021/03/24 12:25:02;;;;;;;36.67;19.60;;;;;;;;;;5012798;28;20034;-59
2021/03/24 12:27:32;;;;;;;38.70;18.70;;;;;;;;;;5011114;28;20033;-59
2021/03/24 12:30:16;;;;;;;35.85;19.75;;;;;;;;;;5008497;28;20103;-58
2021/03/24 12:32:42;;;;;;;40.00;19.75;;;;;;;;;;5011242;28;20088;-59
2021/03/24 12:35:07;;;;;;;;;;;;;;;;;;5018358;28;20523;-59
2021/03/24 12:37:42;;;;;;;41.30;20.48;;;;;;;;;;5010071;28;19910;-59
2021/03/24 12:40:07;;;;;;;41.97;22.47;;;;;;;;;;5015513;28;20022;-59
2021/03/24 12:42:33;;;;;;;;;;;;;;;;;;5017014;28;20105;-59
2021/03/24 12:44:59;;;;;;;40.33;21.40;;;;;;;;;;5017909;28;19917;-60
2021/03/24 12:47:28;;;;;;;39.67;21.90;;;;;;;;;;5021032;28;20018;-58
2021/03/24 12:50:09;;;;;;;41.33;21.27;;;;;;;;;;5014871;28;20056;-60
2021/03/24 12:52:37;;;;;;;47.37;21.90;;;;;;;;;;5013289;28;20030;-59
2021/03/24 12:55:04;;;;;;;44.23;21.27;;;;;;;;;;5012368;28;20038;-58
2021/03/24 12:57:46;;;;;;;38.30;19.80;;;;;;;;;;5014750;28;20026;-62
2021/03/24 13:00:35;;;;;;;39.77;20.90;;;;;;;;;;5012383;28;20080;-58
2021/03/24 13:03:06;;;;;;;35.23;19.77;;;;;;;;;;5013329;28;20107;-58
2021/03/24 13:05:32;;;;;;;39.35;20.77;;;;;;;;;;5014382;28;20486;-59
2021/03/24 13:07:57;;;;;;;;;;;;;;;;;;5013673;28;20033;-59
2021/03/24 13:10:41;;;;;;;37.58;20.67;;;;;;;;;;5012845;28;19928;-58
2021/03/24 13:13:13;;;;;;;37.42;19.50;;;;;;;;;;5013204;28;20036;-60
2021/03/24 13:15:53;;;;;;;35.53;19.52;;;;;;;;;;5012463;28;20038;-60
2021/03/24 13:18:40;;;;;;;33.60;19.15;;;;;;;;;;5013183;28;20439;-59
2021/03/24 13:21:12;;;;;;;37.03;20.65;;;;;;;;;;5028253;28;20029;-60
2021/03/24 13:23:57;;;;;;;36.47;19.90;;;;;;;;;;5013998;28;20030;-59
2021/03/24 13:26:31;;;;;;;37.10;20.27;;;;;;;;;;5013910;28;20038;-59
2021/03/24 13:29:04;;;;;;;32.58;17.23;;;;;;;;;;5012848;28;20113;-59
2021/03/24 13:31:37;;;;;;;42.70;19.23;;;;;;;;;;5013895;28;20034;-59
2021/03/24 13:34:06;;;;;;;38.97;19.05;;;;;;;;;;5013148;28;20129;-59
2021/03/24 13:36:38;;;;;;;36.05;20.30;;;;;;;;;;5028618;28;20037;-59
2021/03/24 13:39:04;;;;;;;38.75;18.75;;;;;;;;;;5013332;28;20034;-59
2021/03/24 13:41:32;;;;;;;36.03;17.25;;;;;;;;;;5014031;28;20026;-59
2021/03/24 13:44:03;;;;;;;38.00;20.17;;;;;;;;;;5011618;28;20040;-59
2021/03/24 13:46:30;;;;;;;39.95;19.67;;;;;;;;;;5013884;28;20044;-59
2021/03/24 13:48:59;;;;;;;34.05;19.55;;;;;;;;;;5013455;28;20022;-60
2021/03/24 13:51:32;;;;;;;35.75;19.27;;;;;;;;;;5013734;28;20062;-58
2021/03/24 13:54:10;;;;;;;35.30;19.70;;;;;;;;;;5028391;28;20042;-60
2021/03/24 13:56:54;;;;;;;34.53;17.15;;;;;;;;;;5013084;28;20367;-59
2021/03/24 13:59:36;;;;;;;37.20;19.17;;;;;;;;;;5012416;28;20034;-59
2021/03/24 14:02:20;;;;;;;32.30;16.88;;;;;;;;;;5012282;28;20433;-59
2021/03/24 14:05:03;;;;;;;31.60;17.02;;;;;;;;;;5011709;28;20058;-59
2021/03/24 14:07:55;;;;;;;33.53;18.65;;;;;;;;;;5012159;28;20022;-58
2021/03/24 14:10:35;;;;;;;31.60;18.38;;;;;;;;;;4996842;28;20034;-58
2021/03/24 14:13:20;;;;;;;35.55;19.52;;;;;;;;;;5012288;28;20038;-58
2021/03/24 14:15:51;;;;;;;33.05;17.48;;;;;;;;;;5012803;28;20409;-58
2021/03/24 14:18:35;;;;;;;27.10;15.98;;;;;;;;;;5012315;28;20084;-59
2021/03/24 14:21:08;;;;;;;27.40;16.50;;;;;;;;;;5012270;28;20057;-58
2021/03/24 14:23:45;;;;;;;29.35;15.80;;;;;;;;;;5011457;28;20033;-59
2021/03/24 14:26:14;;;;;;;27.67;16.63;;;;;;;;;;5010778;28;20038;-58
2021/03/24 14:28:58;;;;;;;34.78;17.98;;;;;;;;;;5012813;28;20061;-59
2021/03/24 14:31:26;;;;;;;30.95;17.55;;;;;;;;;;5013560;28;20034;-59
2021/03/24 14:34:06;;;;;;;35.50;17.13;;;;;;;;;;5012035;28;20041;-59
2021/03/24 14:36:40;;;;;;;26.58;16.40;;;;;;;;;;5012911;28;20046;-59
2021/03/24 14:39:08;;;;;;;30.08;16.73;;;;;;;;;;5012030;28;20038;-58
2021/03/24 14:41:44;;;;;;;31.02;17.10;;;;;;;;;;5012907;28;20462;-58
2021/03/24 14:44:12;;;;;;;33.05;18.45;;;;;;;;;;5011911;28;20046;-59